createdAt,value
2023-04-10T00:02:51.437Z,101322.19
2023-04-10T00:07:52.225Z,101316.09
2023-04-10T00:12:55.994Z,101314.31
2023-04-10T00:17:56.568Z,101312.41
2023-04-10T00:22:57.232Z,101313.09
2023-04-10T00:27:59.156Z,101307.75
2023-04-10T00:32:59.896Z,101300.66
2023-04-10T00:38:00.791Z,101298.81
2023-04-10T00:43:02.999Z,101295.28
2023-04-10T00:48:04.488Z,101288.09
2023-04-10T00:53:05.225Z,101282.13
2023-04-10T00:58:07.366Z,101289.75
2023-04-10T01:03:08.832Z,101300.88
2023-04-10T01:08:17.309Z,101293.03
2023-04-10T01:13:23.936Z,101301.44
2023-04-10T01:18:31.184Z,101302.28
2023-04-10T01:23:53.836Z,101309.84
2023-04-10T01:29:02.047Z,101305.38
2023-04-10T01:34:09.519Z,101308.84
2023-04-10T01:39:13.477Z,101309.53
2023-04-10T01:44:16.839Z,101305.09
2023-04-10T01:49:19.079Z,101304.84
2023-04-10T01:54:19.996Z,101303.91
2023-04-10T01:59:23.099Z,101301.31
2023-04-10T02:04:23.796Z,101297.03
2023-04-10T02:09:32.242Z,101296.97
2023-04-10T02:14:37.361Z,101301.75
2023-04-10T02:19:39.590Z,101302.47
2023-04-10T02:24:40.214Z,101295.56
2023-04-10T02:29:42.080Z,101292.00
2023-04-10T02:34:43.820Z,101280.75
2023-04-10T02:39:44.437Z,101279.78
2023-04-10T02:44:48.188Z,101282.25
2023-04-10T02:49:49.033Z,101284.56
2023-04-10T02:54:51.884Z,101278.63
2023-04-10T02:59:53.863Z,101278.69
2023-04-10T03:04:57.081Z,101276.97
2023-04-10T03:09:58.258Z,101276.25
2023-04-10T03:15:00.499Z,101281.47
2023-04-10T03:20:01.179Z,101300.59
2023-04-10T03:25:02.493Z,101300.09
2023-04-10T03:30:06.266Z,101297.78
2023-04-10T03:35:13.586Z,101284.91
2023-04-10T03:40:14.429Z,101297.72
2023-04-10T03:45:16.575Z,101305.47
2023-04-10T03:50:17.324Z,101303.75
2023-04-10T03:55:24.253Z,101301.19
2023-04-10T04:00:27.964Z,101296.84
2023-04-10T04:05:35.998Z,101306.06
2023-04-10T04:11:02.769Z,101306.78
2023-04-10T04:16:12.143Z,101308.38
2023-04-10T04:21:23.203Z,101320.47
2023-04-10T04:26:39.074Z,101324.13
2023-04-10T04:32:01.466Z,101318.97
2023-04-10T04:37:34.372Z,101321.69
2023-04-10T04:42:49.949Z,101324.31
2023-04-10T04:48:18.588Z,101336.41
2023-04-10T04:53:37.485Z,101333.00
2023-04-10T04:58:48.768Z,101318.50
2023-04-10T05:03:50.832Z,101328.03
2023-04-10T05:09:26.742Z,101328.28
2023-04-10T05:14:50.696Z,101324.06
2023-04-10T05:20:05.278Z,101326.66
2023-04-10T05:25:31.671Z,101324.19
2023-04-10T05:30:53.629Z,101331.13
2023-04-10T05:36:14.407Z,101334.63
2023-04-10T05:41:26.770Z,101338.63
2023-04-10T05:46:45.879Z,101335.19
2023-04-10T05:51:58.966Z,101329.34
2023-04-10T05:57:18.068Z,101327.16
2023-04-10T06:02:19.211Z,101332.81
2023-04-10T06:07:21.924Z,101327.94
2023-04-10T06:12:22.649Z,101325.63
2023-04-10T06:17:25.665Z,101326.59
2023-04-10T06:22:28.623Z,101333.66
2023-04-10T06:27:29.955Z,101322.53
2023-04-10T06:32:31.483Z,101321.81
2023-04-10T06:37:33.647Z,101321.22
2023-04-10T06:42:37.287Z,101315.31
2023-04-10T06:47:46.626Z,101312.88
2023-04-10T06:52:48.834Z,101313.94
2023-04-10T06:57:49.419Z,101319.00
2023-04-10T07:02:50.164Z,101306.38
2023-04-10T07:07:52.128Z,101306.44
2023-04-10T07:12:52.795Z,101300.44
2023-04-10T07:17:53.457Z,101295.22
2023-04-10T07:22:55.439Z,101293.50
2023-04-10T07:27:56.035Z,101295.25
2023-04-10T07:32:57.529Z,101286.59
2023-04-10T07:37:59.766Z,101285.72
2023-04-10T07:43:00.330Z,101273.59
2023-04-10T07:48:02.189Z,101273.59
2023-04-10T07:53:07.802Z,101268.38
2023-04-10T07:58:08.539Z,101257.00
2023-04-10T08:03:09.304Z,101250.81
2023-04-10T08:08:11.482Z,101251.56
2023-04-10T08:13:12.615Z,101242.84
2023-04-10T08:18:13.203Z,101248.78
2023-04-10T08:23:20.420Z,101251.38
2023-04-10T08:28:21.564Z,101241.78
2023-04-10T08:33:22.143Z,101241.69
2023-04-10T08:38:25.070Z,101238.97
2023-04-10T08:43:27.122Z,101230.13
2023-04-10T08:48:36.507Z,101222.16
2023-04-10T08:53:41.854Z,101216.84
2023-04-10T08:58:42.773Z,101202.75
2023-04-10T09:03:43.559Z,101203.47
2023-04-10T09:08:45.595Z,101208.59
2023-04-10T09:13:46.412Z,101194.53
2023-04-10T09:18:49.427Z,101188.03
2023-04-10T09:24:01.694Z,101185.13
2023-04-10T09:29:04.254Z,101187.47
2023-04-10T09:34:12.081Z,101179.59
2023-04-10T09:39:14.083Z,101169.84
2023-04-10T09:44:14.696Z,101161.53
2023-04-10T09:49:15.760Z,101153.91
2023-04-10T09:54:17.774Z,101135.19
2023-04-10T09:59:19.701Z,101136.47
2023-04-10T10:04:20.554Z,101127.44
2023-04-10T10:09:22.610Z,101117.88
2023-04-10T10:14:26.864Z,101110.09
2023-04-10T10:19:32.674Z,101106.97
2023-04-10T10:24:36.816Z,101087.94
2023-04-10T10:29:39.387Z,101074.03
2023-04-10T10:34:40.302Z,101079.38
2023-04-10T10:39:54.284Z,101066.78
2023-04-10T10:45:02.066Z,101059.94
2023-04-10T10:50:04.882Z,101059.16
2023-04-10T10:55:35.009Z,101037.81
2023-04-10T11:01:06.792Z,101032.56
2023-04-10T11:06:09.469Z,101023.03
2023-04-10T11:11:15.730Z,101018.44
2023-04-10T11:16:16.613Z,101001.69
2023-04-10T11:21:18.689Z,100989.66
2023-04-10T11:26:38.281Z,100984.84
2023-04-10T11:31:39.366Z,100979.28
2023-04-10T11:36:41.811Z,100961.06
2023-04-10T11:41:45.000Z,100967.88
2023-04-10T11:46:47.379Z,100957.53
2023-04-10T11:51:49.392Z,100949.16
2023-04-10T11:56:59.615Z,100937.66
2023-04-10T12:02:09.458Z,100924.72
2023-04-10T12:07:10.580Z,100923.31
2023-04-10T12:12:12.496Z,100917.88
2023-04-10T12:17:13.874Z,100908.09
2023-04-10T12:22:14.516Z,100906.41
2023-04-10T12:27:20.866Z,100904.38
2023-04-10T12:32:22.255Z,100899.44
2023-04-10T12:37:22.884Z,100897.81
2023-04-10T12:42:27.136Z,100894.34
2023-04-10T12:47:29.481Z,100887.53
2023-04-10T12:52:31.493Z,100885.75
2023-04-10T12:57:33.405Z,100873.34
2023-04-10T13:02:34.283Z,100860.44
2023-04-10T13:07:35.127Z,100855.56
2023-04-10T13:12:38.629Z,100851.28
2023-04-10T13:17:40.915Z,100848.59
2023-04-10T13:22:41.567Z,100848.22
2023-04-10T13:27:43.485Z,100839.75
2023-04-10T13:32:44.215Z,100826.16
2023-04-10T13:37:46.090Z,100821.13
2023-04-10T13:42:48.417Z,100807.31
2023-04-10T13:47:49.161Z,100798.59
2023-04-10T13:52:51.579Z,100787.28
2023-04-10T13:57:54.931Z,100788.97
2023-04-10T14:02:55.871Z,100772.28
2023-04-10T14:07:57.088Z,100772.41
2023-04-10T14:12:59.054Z,100765.28
2023-04-10T14:17:59.775Z,100748.47
2023-04-10T14:23:00.382Z,100742.34
2023-04-10T14:28:02.437Z,100744.88
2023-04-10T14:33:03.195Z,100741.63
2023-04-10T14:38:04.174Z,100730.34
2023-04-10T14:43:06.140Z,100723.28
2023-04-10T14:48:06.885Z,100716.91
2023-04-10T14:53:09.808Z,100713.13
2023-04-10T14:58:12.034Z,100706.53
2023-04-10T15:03:12.774Z,100696.53
2023-04-10T15:08:13.404Z,100696.84
2023-04-10T15:13:15.442Z,100688.63
2023-04-10T15:18:16.205Z,100679.72
2023-04-10T15:23:16.800Z,100667.09
2023-04-10T15:28:18.732Z,100657.91
2023-04-10T15:33:19.512Z,100656.59
2023-04-10T15:38:20.347Z,100649.28
2023-04-10T15:43:22.276Z,100642.44
2023-04-10T15:48:24.490Z,100635.00
2023-04-10T15:53:25.284Z,100629.38
2023-04-10T15:58:27.308Z,100618.59
2023-04-10T16:03:30.165Z,100622.34
2023-04-10T16:08:31.295Z,100617.28
2023-04-10T16:13:33.296Z,100604.03
2023-04-10T16:18:33.968Z,100599.31
2023-04-10T16:23:34.599Z,100585.47
2023-04-10T16:28:36.528Z,100589.78
2023-04-10T16:33:37.183Z,100588.81
2023-04-10T16:38:37.855Z,100587.81
2023-04-10T16:43:40.066Z,100578.88
2023-04-10T16:48:40.775Z,100571.00
2023-04-10T16:53:41.382Z,100564.13
2023-04-10T16:58:43.394Z,100563.28
2023-04-10T17:03:44.122Z,100550.38
2023-04-10T17:08:45.113Z,100545.72
2023-04-10T17:13:47.078Z,100542.47
2023-04-10T17:18:47.804Z,100535.13
2023-04-10T17:23:48.835Z,100534.91
2023-04-10T17:28:51.138Z,100537.00
2023-04-10T17:33:51.797Z,100536.66
2023-04-10T17:38:54.146Z,100531.94
2023-04-10T17:43:56.268Z,100536.72
2023-04-10T17:49:01.259Z,100533.22
2023-04-10T17:54:02.214Z,100527.97
2023-04-10T17:59:04.223Z,100533.13
2023-04-10T18:04:05.135Z,100523.69
2023-04-10T18:09:05.914Z,100514.88
2023-04-10T18:14:07.818Z,100508.00
2023-04-10T18:19:08.583Z,100516.47
2023-04-10T18:24:10.695Z,100513.09
2023-04-10T18:29:12.606Z,100512.72
2023-04-10T18:34:13.451Z,100505.28
2023-04-10T18:39:14.303Z,100493.53
2023-04-10T18:44:16.307Z,100486.88
2023-04-10T18:49:17.009Z,100497.53
2023-04-10T18:54:18.050Z,100493.34
2023-04-10T18:59:20.161Z,100488.44
2023-04-10T19:04:20.892Z,100481.41
2023-04-10T19:09:21.531Z,100481.31
2023-04-10T19:14:23.486Z,100479.25
2023-04-10T19:19:24.172Z,100469.69
2023-04-10T19:24:24.783Z,100469.16
2023-04-10T19:29:26.737Z,100464.66
2023-04-10T19:34:27.392Z,100457.91
2023-04-10T19:39:28.177Z,100437.19
2023-04-10T19:44:30.116Z,100429.47
2023-04-10T19:49:33.001Z,100423.44
2023-04-10T19:54:33.661Z,100423.44
2023-04-10T19:59:36.697Z,100421.72
2023-04-10T20:04:37.501Z,100415.00
2023-04-10T20:09:38.231Z,100416.81
2023-04-10T20:14:40.237Z,100415.22
2023-04-10T20:19:40.976Z,100411.81
2023-04-10T20:24:41.601Z,100398.84
2023-04-10T20:29:43.627Z,100389.47
2023-04-10T20:34:44.376Z,100373.00
2023-04-10T20:39:45.278Z,100355.81
2023-04-10T20:44:47.238Z,100344.53
2023-04-10T20:49:47.847Z,100349.00
2023-04-10T20:54:48.448Z,100353.44
2023-04-10T20:59:51.949Z,100345.72
2023-04-10T21:04:52.922Z,100331.97
2023-04-10T21:09:53.552Z,100337.28
2023-04-10T21:14:55.480Z,100333.63
2023-04-10T21:19:56.069Z,100336.44
2023-04-10T21:24:56.848Z,100332.19
2023-04-10T21:29:58.766Z,100325.31
2023-04-10T21:34:59.549Z,100333.81
2023-04-10T21:40:00.378Z,100323.53
2023-04-10T21:45:02.395Z,100307.91
2023-04-10T21:50:03.178Z,100289.47
2023-04-10T21:55:06.188Z,100286.81
2023-04-10T22:00:10.244Z,100278.16
2023-04-10T22:05:11.364Z,100284.16
2023-04-10T22:10:12.047Z,100279.78
2023-04-10T22:15:14.141Z,100276.34
2023-04-10T22:20:14.760Z,100270.22
2023-04-10T22:25:15.640Z,100262.38
2023-04-10T22:30:17.809Z,100257.13
2023-04-10T22:35:18.353Z,100252.91
2023-04-10T22:40:19.065Z,100248.56
2023-04-10T22:45:21.602Z,100243.31
2023-04-10T22:50:22.269Z,100227.84
2023-04-10T22:55:22.933Z,100213.06
2023-04-10T23:00:24.937Z,100210.31
2023-04-10T23:05:25.519Z,100194.59
2023-04-10T23:10:26.199Z,100178.84
2023-04-10T23:15:28.184Z,100181.50
2023-04-10T23:20:28.780Z,100176.22
2023-04-10T23:25:29.443Z,100155.41
2023-04-10T23:30:32.379Z,100147.72
2023-04-10T23:35:35.029Z,100142.38
2023-04-10T23:40:35.748Z,100128.38
2023-04-10T23:45:37.640Z,100118.78
2023-04-10T23:50:38.249Z,100105.59
2023-04-10T23:55:40.078Z,100106.53
